“In life, you're either a passenger or a pilot. It’s your choice.”

WELCOME TO YOUR AVIATION DREAM!

What's new Up There Icon

WHAT’S NEW HERE?

4000+ aviation terms, acronyms and definitions!
Make your study a little easier with the aviation glossaries that gather over 4000 terms and acronyms extracted from weather, communications, technical and more general topics…
Partnership Icon

PARTNESHIP ANNOUCEMENT

I am proud to announce a partnership with nizul Logo, study partner of every pilot who wants to consolidate their ground school knowledge and master their written examination.

Try Me Icon

ALL YOURS FOR 30 MINUTES!

Not sure you’d get along with a freelance instructor? How about giving it a try with a 30 minute flight?
My treat! All free.

Resources Tool Box

STUDENT RESOURCES

As a registered student training with me, you get access to a whole lot of files, tools, documents, aviation glossaries, videos, quizzes, sample tests, etc… 

Control Tower Icon

QUESTIONS? CHECK F.A.Q.

In aviation, the only stupid question is the one you didn’t ask. And there is a big chance yours has already been answered in the FAQ. Check it out!

Brain Icon

ARE YOU WIRED FOR FLYING?

Flying an aircraft is usually not the most difficult part of the “problem” and it takes a certain mindset to deal with the other aspects of a flight. Find out wether…

THEY DID IT!

Meet those who refused to be the passengers of their lives, and learn about their experience.

QUICK FACTS

Aviation is a world of serious numbers.
Here are my own, and they count as much as the other ones.

0
YEARS OF
WISDOM
0
YEARS OF
SKY FUN
0
AMAZING
STUDENTS
0
HOURS OF
PURE EXCITEMENT

Grow some wings,
Come fly with me!

Vancouver Island Weather

METARs and TAFs.
VICTORIA INTL (CYYJ)
METAR:

CYYJ 290000Z 04004KT 30SM SKC 19/09 A3025 RMK SLP245 DENSITY ALT 200FT

TAF:

TAF CYYJ 281738Z 2818/2918 28006KT P6SM FEW170 BECMG 2818/2820 06006KT BECMG 2904/2906 27005KT RMK NXT FCST BY 290000Z

NANAIMO (CYCD)
METAR:

CYCD 290000Z 01006KT 30SM FEW250 20/11 A3026 RMK CI1 CI TR SLP249 DENSITY ALT 400FT

TAF:

TAF CYCD 281738Z 2818/2904 VRB03KT P6SM FEW020 FEW250 BECMG 2820/2822 02006KT BECMG 2901/2903 27005KT RMK NXT FCST BY 290000Z

LONG BEACH (CYAZ)
METAR:

CYAZ 290000Z 30008KT 15SM SKC 20/14 A3023 RMK SLP238 DENSITY ALT 300FT

TAF:

TAF CYAZ 281838Z 2819/2901 VRB03KT P6SM SCT020 BKN040 TEMPO 2819/2820 5SM -DZ BR BKN020 FM282000 27006KT P6SM SCT012 SCT030 RMK NXT FCST WILL BE ISSUED AT 291445Z

For more in-depth weather information, please, check Collaborative Flight Planning Service

For all Runway conditions in CYYJ, please check

IIDS Web View

Windy’s Forecast & Observations